Orlando, Florida
Traffic Map
Current Weather Conditions
Orlando, Florida
Broken Clouds
Broken Clouds
65°
Feels Like: 65°
Wind Chill: 65° Ceiling: 4700
Heat Index: 65° Visibility: 10mi
Dew Point: 54° Wind: 8mph
Humidity: 68% Direction: 350° (N)
Pressure: 29.96in Gusts: 0mph
Raw Report DataKORL 250853Z AUTO 35007KT 10SM BKN047 18/12 A2996 RMK AO2 SLP147 T01830122 55002
Traffic Incident Summary
Active as of:
Severity:
Category:
InformationThere was an issue retrieving the traffic information for this location. Please try a different location or try again shortly.
Advertisements
Track Severe Weather on mobile